Time;durP1;ratioP1;P1;durP2;ratioP2;P2;SDS_P1;SDS_P2;PMS_P1;PMS_P2;Temp;Humidity;BMP_temperature;BMP_pressure;BME280_temperature;BME280_humidity;BME280_pressure;Samples;Min_cycle;Max_cycle;Signal;HPM_P1;HPM_P2
2021/12/19 00:09:37;;;;;;;1.75;0.90;;;12.40;67.50;;;;;;20914165;28;20071;-78
2021/12/19 00:19:37;;;;;;;1.88;1.00;;;12.40;67.50;;;;;;20894812;28;20082;-77
2021/12/19 00:29:38;;;;;;;1.70;0.85;;;12.40;67.40;;;;;;20909608;28;20052;-77
2021/12/19 00:39:39;;;;;;;1.98;0.95;;;12.40;67.40;;;;;;20909873;28;20415;-76
2021/12/19 00:49:39;;;;;;;3.33;0.98;;;12.40;67.40;;;;;;20909446;28;20079;-77
2021/12/19 00:59:40;;;;;;;2.08;0.98;;;12.30;67.30;;;;;;20892665;28;20037;-77
2021/12/19 01:09:41;;;;;;;1.20;0.85;;;12.40;67.40;;;;;;20891366;28;20037;-78
2021/12/19 01:19:41;;;;;;;2.88;0.70;;;12.30;67.30;;;;;;20843457;28;20121;-78
2021/12/19 01:29:42;;;;;;;1.73;0.80;;;12.30;67.20;;;;;;20824442;28;20124;-77
2021/12/19 01:39:42;;;;;;;5.57;1.27;;;12.30;67.20;;;;;;20813574;28;20113;-77
2021/12/19 01:49:43;;;;;;;4.80;0.83;;;12.30;67.10;;;;;;20824238;28;20053;-77
2021/12/19 01:59:43;;;;;;;3.58;0.82;;;12.30;67.10;;;;;;20823247;28;20328;-76
2021/12/19 02:09:44;;;;;;;2.33;0.85;;;12.30;67.00;;;;;;20822271;28;20561;-79
2021/12/19 02:19:46;;;;;;;5.40;1.05;;;12.30;67.00;;;;;;20838260;28;20057;-77
2021/12/19 02:29:47;;;;;;;2.97;0.93;;;12.30;67.00;;;;;;20821278;28;20407;-77
2021/12/19 02:40:09;;;;;;;1.90;0.80;;;12.30;66.90;;;;;;20821093;28;20025;-78
2021/12/19 02:50:10;;;;;;;3.33;1.70;;;12.30;66.90;;;;;;20821921;28;20045;-76
2021/12/19 03:00:12;;;;;;;4.13;1.02;;;12.20;66.80;;;;;;20819286;28;20124;-76
2021/12/19 03:10:56;;;;;;;2.15;1.23;;;12.20;66.80;;;;;;20817551;28;20033;-76
2021/12/19 03:20:44;;;;;;;5.13;0.90;;;12.30;66.80;;;;;;20833368;28;20114;-77
2021/12/19 03:30:46;;;;;;;2.15;1.20;;;12.20;66.80;;;;;;20832748;28;20121;-77
2021/12/19 03:40:54;;;;;;;3.90;1.77;;;12.20;66.80;;;;;;20797964;28;20040;-75
2021/12/19 03:50:55;;;;;;;2.65;1.42;;;12.30;66.80;;;;;;20832410;28;20037;-77
2021/12/19 04:01:00;;;;;;;4.70;2.27;;;12.20;66.80;;;;;;20812698;28;20091;-76
2021/12/19 04:11:02;;;;;;;1.97;1.30;;;12.20;66.80;;;;;;20812929;28;20323;-79
2021/12/19 04:21:02;;;;;;;6.30;1.60;;;12.30;66.80;;;;;;20812348;28;20041;-77
2021/12/19 04:31:04;;;;;;;3.25;1.52;;;12.20;66.70;;;;;;20829587;28;20033;-76
2021/12/19 05:01:38;;;;;;;6.50;1.50;;;12.20;66.70;;;;;;20810652;28;20032;-76
2021/12/19 05:14:06;;;;;;;2.60;1.52;;;12.20;66.70;;;;;;20825240;28;20029;-76
2021/12/19 05:22:14;;;;;;;5.35;1.30;;;12.50;66.10;;;;;;20824732;28;20515;-76
2021/12/19 05:32:15;;;;;;;5.13;1.77;;;13.20;64.30;;;;;;20807673;28;20037;-76
2021/12/19 05:52:34;;;;;;;7.28;1.30;;;14.60;60.40;;;;;;20808754;28;20121;-76
2021/12/19 06:02:35;;;;;;;4.67;1.30;;;15.00;58.90;;;;;;20790412;28;20069;-76
2021/12/19 06:12:37;;;;;;;1.50;1.00;;;15.10;58.20;;;;;;20806218;28;20052;-77
2021/12/19 06:22:38;;;;;;;2.95;1.15;;;15.10;58.00;;;;;;20825306;28;20037;-76
2021/12/19 06:32:39;;;;;;;2.80;1.20;;;14.90;58.30;;;;;;20819624;28;20037;-76
2021/12/19 06:42:40;;;;;;;3.40;0.80;;;14.30;59.30;;;;;;20820757;28;20041;-77
2021/12/19 06:52:40;;;;;;;5.68;1.40;;;13.80;60.50;;;;;;20819879;28;20434;-76
2021/12/19 07:02:41;;;;;;;2.75;1.20;;;13.40;61.60;;;;;;20835460;28;20049;-76
2021/12/19 07:12:41;;;;;;;7.15;1.05;;;13.10;62.50;;;;;;20835754;28;20033;-76
2021/12/19 07:22:42;;;;;;;4.45;1.17;;;12.90;63.40;;;;;;20817214;28;20133;-74
2021/12/19 07:32:42;;;;;;;3.85;1.17;;;12.70;64.60;;;;;;20832571;28;20555;-75
2021/12/19 07:42:44;;;;;;;2.67;0.80;;;12.60;64.40;;;;;;20831141;28;20495;-76
2021/12/19 07:52:45;;;;;;;3.45;1.48;;;12.50;64.70;;;;;;20831468;28;20041;-74
2021/12/19 08:02:45;;;;;;;4.68;1.02;;;12.50;65.00;;;;;;20812491;28;20499;-76
2021/12/19 08:12:46;;;;;;;2.08;1.02;;;12.40;65.10;;;;;;20827728;28;20120;-75
2021/12/19 08:22:50;;;;;;;4.63;0.98;;;12.40;65.20;;;;;;20819689;28;20045;-79
2021/12/19 08:32:52;;;;;;;1.15;0.70;;;12.40;65.30;;;;;;20729818;28;20034;-79
2021/12/19 08:42:53;;;;;;;3.33;0.85;;;12.50;65.40;;;;;;20761167;28;20125;-79
2021/12/19 08:52:54;;;;;;;1.08;0.50;;;12.50;65.50;;;;;;20817549;28;20099;-80
2021/12/19 09:02:56;;;;;;;1.63;0.60;;;12.50;65.50;;;;;;20831896;28;20064;-82
2021/12/19 09:12:58;;;;;;;1.38;0.55;;;12.40;65.60;;;;;;20871777;28;20174;-82
2021/12/19 09:22:59;;;;;;;1.98;0.57;;;12.40;65.80;;;;;;20832276;28;20038;-81
2021/12/19 09:33:01;;;;;;;2.33;0.50;;;12.40;66.00;;;;;;20856490;28;20029;-79
2021/12/19 09:43:11;;;;;;;2.95;0.50;;;12.40;66.10;;;;;;20830443;28;20048;-82
2021/12/19 09:53:12;;;;;;;1.33;0.55;;;12.40;66.20;;;;;;20792989;28;20052;-81
2021/12/19 10:03:18;;;;;;;1.42;0.47;;;12.40;66.40;;;;;;20826730;28;20033;-78
2021/12/19 10:13:30;;;;;;;1.60;0.68;;;12.40;66.50;;;;;;20868260;28;20029;-78
2021/12/19 10:23:32;;;;;;;1.30;0.70;;;12.40;66.50;;;;;;20904748;28;20049;-83
2021/12/19 10:33:33;;;;;;;1.48;0.50;;;12.30;66.60;;;;;;20902267;28;20071;-79
2021/12/19 10:43:35;;;;;;;0.75;0.60;;;12.30;67.00;;;;;;20888358;28;20135;-76
2021/12/19 10:53:39;;;;;;;4.72;0.82;;;12.40;67.20;;;;;;20838377;28;20103;-78
2021/12/19 11:03:47;;;;;;;2.13;1.10;;;12.30;67.00;;;;;;20815816;28;20464;-74
2021/12/19 11:13:48;;;;;;;0.77;0.30;;;12.40;67.10;;;;;;20814778;28;20535;-77
2021/12/19 11:23:49;;;;;;;2.35;0.50;;;12.80;66.20;;;;;;21196892;22;20611;-75
2021/12/19 11:34:01;;;;;;;5.15;1.10;;;13.40;64.40;;;;;;20881530;28;20036;-79
2021/12/19 11:44:07;;;;;;;5.32;1.30;;;13.90;63.50;;;;;;20871178;28;20044;-76
2021/12/19 11:54:12;;;;;;;1.47;0.77;;;14.40;62.60;;;;;;20903365;28;20044;-75
2021/12/19 12:04:14;;;;;;;1.10;0.60;;;14.70;61.80;;;;;;20891568;28;20402;-75
2021/12/19 12:14:29;;;;;;;1.98;0.70;;;14.60;61.50;;;;;;20891292;28;20090;-76
2021/12/19 12:24:30;;;;;;;1.58;0.57;;;14.40;61.60;;;;;;20890065;28;20047;-74
2021/12/19 12:34:30;;;;;;;1.40;0.50;;;14.10;62.10;;;;;;20891892;28;20761;-81
2021/12/19 12:44:31;;;;;;;4.85;0.75;;;13.70;62.70;;;;;;20910365;28;20489;-79
2021/12/19 12:54:36;;;;;;;3.00;0.60;;;13.40;63.30;;;;;;20918903;28;20037;-79
2021/12/19 13:04:37;;;;;;;2.45;1.05;;;13.20;63.90;;;;;;20885697;28;20287;-79
2021/12/19 13:14:46;;;;;;;2.17;0.75;;;13.00;64.60;;;;;;20904535;28;20060;-79
2021/12/19 13:24:48;;;;;;;2.97;0.85;;;12.80;65.20;;;;;;20887837;28;20478;-79
2021/12/19 13:34:52;;;;;;;3.60;0.80;;;12.70;65.70;;;;;;20909999;28;20072;-78
2021/12/19 13:44:52;;;;;;;5.20;1.25;;;12.60;66.00;;;;;;20916962;28;20032;-78
2021/12/19 13:55:09;;;;;;;3.38;1.15;;;12.50;66.20;;;;;;20916136;28;20044;-80
2021/12/19 14:05:29;;;;;;;2.03;0.80;;;12.50;66.30;;;;;;20913896;28;20040;-75
2021/12/19 14:15:30;;;;;;;2.13;1.13;;;12.60;66.40;;;;;;20931104;28;20072;-78
2021/12/19 14:25:33;;;;;;;2.35;0.75;;;12.60;66.20;;;;;;20915413;28;20047;-76
2021/12/19 14:35:33;;;;;;;4.40;1.23;;;12.60;66.20;;;;;;20917607;28;20033;-79
2021/12/19 14:45:36;;;;;;;3.08;1.17;;;12.60;66.00;;;;;;20911699;28;20032;-76
2021/12/19 14:55:41;;;;;;;1.67;0.60;;;12.60;65.80;;;;;;20919241;28;20036;-81
2021/12/19 15:05:42;;;;;;;3.10;1.20;;;12.70;65.80;;;;;;20903317;28;20025;-78
2021/12/19 15:15:44;;;;;;;3.70;1.00;;;12.60;65.80;;;;;;20856474;28;20092;-79
2021/12/19 15:25:46;;;;;;;2.05;0.70;;;12.60;65.80;;;;;;20837792;28;20040;-79
2021/12/19 15:35:47;;;;;;;3.72;1.23;;;12.60;65.80;;;;;;20897730;28;20487;-78
2021/12/19 15:45:47;;;;;;;3.05;1.05;;;12.70;65.80;;;;;;20813959;28;20041;-84
2021/12/19 15:55:48;;;;;;;4.45;1.77;;;13.10;64.70;;;;;;20797630;28;20034;-83
2021/12/19 16:05:52;;;;;;;3.63;1.35;;;13.70;63.00;;;;;;20839704;28;20025;-79
2021/12/19 16:15:54;;;;;;;5.88;1.75;;;14.30;61.20;;;;;;20886236;28;20514;-81
2021/12/19 16:25:54;;;;;;;2.40;1.15;;;14.80;59.70;;;;;;20912301;28;20178;-75
2021/12/19 16:35:56;;;;;;;6.70;1.13;;;15.00;58.70;;;;;;20907268;28;20068;-75
2021/12/19 16:45:58;;;;;;;3.53;1.20;;;15.00;58.20;;;;;;20846466;28;20055;-79
2021/12/19 16:56:01;;;;;;;1.23;0.70;;;14.60;58.70;;;;;;20850615;28;20036;-79
2021/12/19 17:06:02;;;;;;;3.58;2.13;;;14.10;59.60;;;;;;20863318;28;20065;-80
2021/12/19 17:16:03;;;;;;;2.67;0.98;;;13.70;60.60;;;;;;20908656;28;20037;-80
2021/12/19 17:26:05;;;;;;;7.38;1.67;;;13.40;61.40;;;;;;20899833;28;20044;-81
2021/12/19 17:36:07;;;;;;;3.78;1.10;;;13.10;62.10;;;;;;20906208;28;20057;-81
2021/12/19 17:46:11;;;;;;;5.90;1.55;;;12.90;62.70;;;;;;20866134;28;20526;-78
2021/12/19 17:56:12;;;;;;;6.38;1.65;;;12.80;63.30;;;;;;20879116;28;20037;-81
2021/12/19 18:06:13;;;;;;;2.47;0.95;;;12.70;63.60;;;;;;20807250;28;20495;-79
2021/12/19 18:16:15;;;;;;;3.22;1.40;;;12.60;63.80;;;;;;20790247;28;20047;-79
2021/12/19 18:26:16;;;;;;;5.13;1.60;;;12.70;64.00;;;;;;20842614;28;20045;-80
2021/12/19 18:36:20;;;;;;;3.78;1.90;;;12.60;64.00;;;;;;20865814;28;20098;-79
2021/12/19 18:46:37;;;;;;;6.65;1.95;;;12.60;64.00;;;;;;20900334;28;20040;-79
2021/12/19 18:56:40;;;;;;;;;;;12.60;64.00;;;;;;20917335;28;20033;-79
2021/12/19 19:06:43;;;;;;;6.47;1.95;;;12.60;63.90;;;;;;20900387;28;19932;-78
2021/12/19 19:16:44;;;;;;;5.50;1.80;;;12.60;63.80;;;;;;20915397;28;20045;-78
2021/12/19 19:26:48;;;;;;;4.78;1.92;;;12.60;63.80;;;;;;20898707;28;20037;-79
2021/12/19 19:36:51;;;;;;;8.43;1.88;;;12.70;63.80;;;;;;20897850;28;20040;-78
2021/12/19 19:57:13;;;;;;;6.78;2.40;;;12.70;63.80;;;;;;20899394;28;20032;-78
2021/12/19 20:07:15;;;;;;;7.53;2.33;;;12.60;63.70;;;;;;20881925;28;20044;-79
2021/12/19 20:17:20;;;;;;;12.77;2.70;;;12.60;63.60;;;;;;20888625;28;20285;-80
2021/12/19 20:27:21;;;;;;;9.57;2.70;;;12.60;63.60;;;;;;20829574;28;20484;-79
2021/12/19 20:37:22;;;;;;;8.35;2.60;;;12.60;63.60;;;;;;20846607;28;20064;-80
2021/12/19 20:47:25;;;;;;;7.95;2.03;;;12.60;63.60;;;;;;20856492;28;20175;-80
2021/12/19 20:57:27;;;;;;;9.20;1.90;;;12.60;63.60;;;;;;20875568;28;20025;-79
2021/12/19 21:07:28;;;;;;;9.20;2.58;;;12.60;63.60;;;;;;20835602;28;20041;-79
2021/12/19 21:27:47;;;;;;;7.95;2.38;;;12.60;63.50;;;;;;20839219;28;20061;-78
2021/12/19 21:48:07;;;;;;;5.05;1.50;;;12.60;63.50;;;;;;20823545;28;20348;-78
2021/12/19 21:58:09;;;;;;;9.02;2.33;;;12.60;63.50;;;;;;20814479;28;20069;-78
2021/12/19 22:08:10;;;;;;;10.55;1.63;;;12.50;63.40;;;;;;20823240;28;20040;-78
2021/12/19 22:18:11;;;;;;;7.85;2.17;;;12.50;63.40;;;;;;20805280;28;20038;-78
2021/12/19 22:28:12;;;;;;;3.28;1.80;;;12.50;63.30;;;;;;20821196;28;20044;-78
2021/12/19 22:38:13;;;;;;;5.35;2.03;;;12.50;63.30;;;;;;20835158;28;20037;-78
2021/12/19 22:48:14;;;;;;;6.43;2.38;;;12.50;63.20;;;;;;20819344;28;20045;-79
2021/12/19 22:58:15;;;;;;;6.65;2.03;;;12.50;63.20;;;;;;20835410;28;20431;-78
2021/12/19 23:08:17;;;;;;;7.95;3.00;;;12.50;63.10;;;;;;20833564;28;20052;-79
2021/12/19 23:18:18;;;;;;;5.18;1.85;;;12.50;63.10;;;;;;20833759;28;20045;-78
2021/12/19 23:28:18;;;;;;;5.55;1.50;;;12.50;63.00;;;;;;20800819;28;20046;-78
2021/12/19 23:38:41;;;;;;;9.85;1.90;;;12.40;62.90;;;;;;20800141;28;20037;-79
2021/12/19 23:48:42;;;;;;;5.57;1.85;;;12.50;62.90;;;;;;20830660;28;20044;-78
2021/12/19 23:58:42;;;;;;;3.95;1.73;;;12.40;62.80;;;;;;20796079;28;20153;-78
